Tobago, Trinidad and Tobago
Current Conditions -  °F | °C
As of 8:00 PM on Monday 24 Nov 2014 (Local Time) from TTCP Reporting Station
Few Clouds Few Clouds  
Wind Chill: 81°   Ceiling: Unl
Heat Index: 85°   Visibility: 6mi
Dew Point: 73°   Wind: 7mph
Humidity: 79%   Direction: 50°NE
Pressure: 29.91"   Gusts: NA
Location:  11.22°N, 60.67°W
Report Text: TTCP 250000Z 05006KT 9999 FEW018 27/23 Q1013 NOSIG
Loading
Personal Weather Stations






























Interactive Weather Map New forecast layout! Learn more

10-Day Weather Forecast

Advertisements
Track Severe Weather on mobile